sensor_id;sensor_type;location;lat;lon;timestamp;pressure;altitude;pressure_sealevel;temperature;humidity
16355;BME280;8287;51.644;8.494;2023-04-29T00:01:29;99932.00;;;14.76;98.82
16355;BME280;8287;51.644;8.494;2023-04-29T00:03:57;99932.47;;;14.66;98.62
16355;BME280;8287;51.644;8.494;2023-04-29T00:06:23;99928.25;;;14.65;98.64
16355;BME280;8287;51.644;8.494;2023-04-29T00:08:50;99934.16;;;14.58;97.21
16355;BME280;8287;51.644;8.494;2023-04-29T00:11:17;99932.72;;;14.61;97.08
16355;BME280;8287;51.644;8.494;2023-04-29T00:13:44;99935.97;;;14.54;97.55
16355;BME280;8287;51.644;8.494;2023-04-29T00:16:10;99939.88;;;14.45;96.91
16355;BME280;8287;51.644;8.494;2023-04-29T00:18:38;99936.91;;;14.34;97.02
16355;BME280;8287;51.644;8.494;2023-04-29T00:21:06;99937.59;;;14.31;96.34
16355;BME280;8287;51.644;8.494;2023-04-29T00:23:32;99946.03;;;14.33;96.23
16355;BME280;8287;51.644;8.494;2023-04-29T00:25:59;99934.50;;;14.29;96.36
16355;BME280;8287;51.644;8.494;2023-04-29T00:28:26;99951.69;;;14.32;96.27
16355;BME280;8287;51.644;8.494;2023-04-29T00:30:52;99942.28;;;14.22;96.34
16355;BME280;8287;51.644;8.494;2023-04-29T00:33:20;99950.03;;;14.27;96.88
16355;BME280;8287;51.644;8.494;2023-04-29T00:35:46;99950.94;;;14.31;96.50
16355;BME280;8287;51.644;8.494;2023-04-29T00:38:14;99961.16;;;14.29;96.17
16355;BME280;8287;51.644;8.494;2023-04-29T00:40:41;99956.25;;;14.31;96.42
16355;BME280;8287;51.644;8.494;2023-04-29T00:43:08;99963.03;;;14.29;95.67
16355;BME280;8287;51.644;8.494;2023-04-29T00:45:35;99961.03;;;14.14;96.36
16355;BME280;8287;51.644;8.494;2023-04-29T00:48:02;99965.06;;;14.20;95.91
16355;BME280;8287;51.644;8.494;2023-04-29T00:50:29;99968.03;;;14.18;95.67
16355;BME280;8287;51.644;8.494;2023-04-29T00:52:58;99973.38;;;14.06;95.49
16355;BME280;8287;51.644;8.494;2023-04-29T00:55:33;99978.44;;;14.11;95.49
16355;BME280;8287;51.644;8.494;2023-04-29T00:58:12;99981.81;;;14.08;95.66
16355;BME280;8287;51.644;8.494;2023-04-29T01:00:40;99973.69;;;14.05;96.26
16355;BME280;8287;51.644;8.494;2023-04-29T01:03:08;99985.25;;;14.09;95.94
16355;BME280;8287;51.644;8.494;2023-04-29T01:05:35;99979.13;;;14.08;95.63
16355;BME280;8287;51.644;8.494;2023-04-29T01:08:12;99985.34;;;14.00;96.25
16355;BME280;8287;51.644;8.494;2023-04-29T01:11:00;99991.34;;;14.09;95.91
16355;BME280;8287;51.644;8.494;2023-04-29T01:13:36;100002.69;;;14.06;95.55
16355;BME280;8287;51.644;8.494;2023-04-29T01:16:07;100008.00;;;14.06;95.92
16355;BME280;8287;51.644;8.494;2023-04-29T01:18:40;100012.09;;;14.04;96.49
16355;BME280;8287;51.644;8.494;2023-04-29T01:21:09;100017.44;;;14.04;96.70
16355;BME280;8287;51.644;8.494;2023-04-29T01:23:37;100011.78;;;14.05;96.13
16355;BME280;8287;51.644;8.494;2023-04-29T01:26:04;100008.78;;;14.07;96.22
16355;BME280;8287;51.644;8.494;2023-04-29T01:28:42;100007.78;;;13.99;95.96
16355;BME280;8287;51.644;8.494;2023-04-29T01:31:16;100014.44;;;13.93;96.73
16355;BME280;8287;51.644;8.494;2023-04-29T01:33:47;100007.00;;;13.99;96.51
16355;BME280;8287;51.644;8.494;2023-04-29T01:36:23;100018.88;;;13.89;96.80
16355;BME280;8287;51.644;8.494;2023-04-29T01:39:02;100020.22;;;13.83;97.15
16355;BME280;8287;51.644;8.494;2023-04-29T01:41:36;100012.78;;;13.77;96.97
16355;BME280;8287;51.644;8.494;2023-04-29T01:44:07;100016.69;;;13.79;97.54
16355;BME280;8287;51.644;8.494;2023-04-29T01:46:34;100021.22;;;13.79;96.98
16355;BME280;8287;51.644;8.494;2023-04-29T01:49:01;100025.31;;;13.76;97.57
16355;BME280;8287;51.644;8.494;2023-04-29T01:51:28;100022.44;;;13.81;97.55
16355;BME280;8287;51.644;8.494;2023-04-29T01:53:56;100029.31;;;13.82;97.58
16355;BME280;8287;51.644;8.494;2023-04-29T01:56:23;100024.00;;;13.82;97.18
16355;BME280;8287;51.644;8.494;2023-04-29T01:58:49;100030.19;;;13.86;97.42
16355;BME280;8287;51.644;8.494;2023-04-29T02:01:16;100030.88;;;13.83;97.32
16355;BME280;8287;51.644;8.494;2023-04-29T02:03:42;100030.63;;;13.76;97.29
16355;BME280;8287;51.644;8.494;2023-04-29T02:06:09;100031.28;;;13.61;98.11
16355;BME280;8287;51.644;8.494;2023-04-29T02:08:36;100025.94;;;13.61;98.18
16355;BME280;8287;51.644;8.494;2023-04-29T02:11:04;100033.72;;;13.54;98.39
16355;BME280;8287;51.644;8.494;2023-04-29T02:13:31;100029.06;;;13.63;97.95
16355;BME280;8287;51.644;8.494;2023-04-29T02:16:06;100038.63;;;13.64;97.80
16355;BME280;8287;51.644;8.494;2023-04-29T02:18:33;100040.72;;;13.59;98.53
16355;BME280;8287;51.644;8.494;2023-04-29T02:21:00;100040.59;;;13.55;98.43
16355;BME280;8287;51.644;8.494;2023-04-29T02:23:26;100049.00;;;13.45;98.40
16355;BME280;8287;51.644;8.494;2023-04-29T02:25:53;100051.75;;;13.37;99.27
16355;BME280;8287;51.644;8.494;2023-04-29T02:28:21;100055.88;;;13.46;99.30
16355;BME280;8287;51.644;8.494;2023-04-29T02:30:48;100049.56;;;13.51;99.03
16355;BME280;8287;51.644;8.494;2023-04-29T02:33:16;100066.31;;;13.51;98.73
16355;BME280;8287;51.644;8.494;2023-04-29T02:35:42;100060.97;;;13.51;99.23
16355;BME280;8287;51.644;8.494;2023-04-29T02:38:09;100061.78;;;13.52;99.17
16355;BME280;8287;51.644;8.494;2023-04-29T02:40:40;100068.97;;;13.51;99.51
16355;BME280;8287;51.644;8.494;2023-04-29T02:43:07;100068.53;;;13.49;99.51
16355;BME280;8287;51.644;8.494;2023-04-29T02:45:35;100070.06;;;13.50;99.85
16355;BME280;8287;51.644;8.494;2023-04-29T02:48:03;100072.53;;;13.55;99.43
16355;BME280;8287;51.644;8.494;2023-04-29T02:50:29;100070.06;;;13.38;99.96
16355;BME280;8287;51.644;8.494;2023-04-29T02:52:56;100074.16;;;13.48;99.15
16355;BME280;8287;51.644;8.494;2023-04-29T02:55:23;100073.28;;;13.44;98.77
16355;BME280;8287;51.644;8.494;2023-04-29T02:57:49;100078.47;;;13.28;98.90
16355;BME280;8287;51.644;8.494;2023-04-29T03:00:17;100078.91;;;13.30;98.98
16355;BME280;8287;51.644;8.494;2023-04-29T03:02:45;100081.56;;;13.30;98.41
16355;BME280;8287;51.644;8.494;2023-04-29T03:05:11;100083.00;;;13.28;98.71
16355;BME280;8287;51.644;8.494;2023-04-29T03:07:38;100084.84;;;13.27;98.81
16355;BME280;8287;51.644;8.494;2023-04-29T03:10:06;100081.56;;;13.30;98.26
16355;BME280;8287;51.644;8.494;2023-04-29T03:12:33;100091.78;;;13.40;97.95
16355;BME280;8287;51.644;8.494;2023-04-29T03:14:59;100101.28;;;13.29;97.60
16355;BME280;8287;51.644;8.494;2023-04-29T03:17:26;100090.19;;;13.27;96.51
16355;BME280;8287;51.644;8.494;2023-04-29T03:19:54;100098.56;;;13.18;96.17
16355;BME280;8287;51.644;8.494;2023-04-29T03:22:21;100099.56;;;13.13;96.09
16355;BME280;8287;51.644;8.494;2023-04-29T03:24:47;100099.09;;;13.11;96.04
16355;BME280;8287;51.644;8.494;2023-04-29T03:27:14;100105.84;;;13.09;96.42
16355;BME280;8287;51.644;8.494;2023-04-29T03:29:40;100111.03;;;13.05;96.00
16355;BME280;8287;51.644;8.494;2023-04-29T03:32:07;100103.84;;;13.06;96.47
16355;BME280;8287;51.644;8.494;2023-04-29T03:34:34;100099.81;;;13.00;96.00
16355;BME280;8287;51.644;8.494;2023-04-29T03:37:02;100109.34;;;13.01;96.81
16355;BME280;8287;51.644;8.494;2023-04-29T03:39:29;100107.50;;;12.93;96.31
16355;BME280;8287;51.644;8.494;2023-04-29T03:41:56;100103.75;;;12.94;96.91
16355;BME280;8287;51.644;8.494;2023-04-29T03:44:23;100106.25;;;12.99;96.16
16355;BME280;8287;51.644;8.494;2023-04-29T03:46:50;100109.44;;;12.84;96.75
16355;BME280;8287;51.644;8.494;2023-04-29T03:49:17;100109.75;;;12.82;97.05
16355;BME280;8287;51.644;8.494;2023-04-29T03:51:43;100118.53;;;12.83;97.20
16355;BME280;8287;51.644;8.494;2023-04-29T03:54:12;100103.22;;;12.80;96.98
16355;BME280;8287;51.644;8.494;2023-04-29T03:56:38;100107.91;;;12.83;97.16
16355;BME280;8287;51.644;8.494;2023-04-29T03:59:05;100104.66;;;12.77;97.13
16355;BME280;8287;51.644;8.494;2023-04-29T04:01:31;100110.38;;;12.88;96.52
16355;BME280;8287;51.644;8.494;2023-04-29T04:03:58;100115.09;;;12.82;97.00
16355;BME280;8287;51.644;8.494;2023-04-29T04:06:25;100121.97;;;12.83;97.48
16355;BME280;8287;51.644;8.494;2023-04-29T04:08:51;100133.81;;;12.86;97.16
16355;BME280;8287;51.644;8.494;2023-04-29T04:11:19;100134.63;;;12.86;97.06
16355;BME280;8287;51.644;8.494;2023-04-29T04:13:46;100142.78;;;12.81;97.18
16355;BME280;8287;51.644;8.494;2023-04-29T04:16:14;100146.66;;;12.84;97.30
16355;BME280;8287;51.644;8.494;2023-04-29T04:18:40;100145.63;;;12.76;97.13
16355;BME280;8287;51.644;8.494;2023-04-29T04:21:07;100144.56;;;12.69;97.22
16355;BME280;8287;51.644;8.494;2023-04-29T04:23:35;100156.22;;;12.56;98.12
16355;BME280;8287;51.644;8.494;2023-04-29T04:26:02;100160.34;;;12.45;98.36
16355;BME280;8287;51.644;8.494;2023-04-29T04:28:30;100163.47;;;12.47;98.91
16355;BME280;8287;51.644;8.494;2023-04-29T04:30:56;100161.25;;;12.49;98.86
16355;BME280;8287;51.644;8.494;2023-04-29T04:33:24;100160.47;;;12.48;98.91
16355;BME280;8287;51.644;8.494;2023-04-29T04:35:51;100171.91;;;12.49;98.57
16355;BME280;8287;51.644;8.494;2023-04-29T04:38:18;100172.41;;;12.42;99.28
16355;BME280;8287;51.644;8.494;2023-04-29T04:40:44;100174.09;;;12.47;99.09
16355;BME280;8287;51.644;8.494;2023-04-29T04:43:11;100180.66;;;12.49;98.90
16355;BME280;8287;51.644;8.494;2023-04-29T04:45:39;100180.03;;;12.44;99.12
16355;BME280;8287;51.644;8.494;2023-04-29T04:48:06;100179.41;;;12.47;99.04
16355;BME280;8287;51.644;8.494;2023-04-29T04:50:32;100191.75;;;12.51;99.43
16355;BME280;8287;51.644;8.494;2023-04-29T04:52:59;100195.97;;;12.44;99.08
16355;BME280;8287;51.644;8.494;2023-04-29T04:55:25;100192.88;;;12.42;99.48
16355;BME280;8287;51.644;8.494;2023-04-29T04:57:52;100198.31;;;12.45;99.97
16355;BME280;8287;51.644;8.494;2023-04-29T05:00:19;100203.63;;;12.45;99.57
16355;BME280;8287;51.644;8.494;2023-04-29T05:02:46;100203.78;;;12.49;100.00
16355;BME280;8287;51.644;8.494;2023-04-29T05:05:13;100211.44;;;12.50;99.41
16355;BME280;8287;51.644;8.494;2023-04-29T05:07:40;100208.66;;;12.38;100.00
16355;BME280;8287;51.644;8.494;2023-04-29T05:10:07;100206.00;;;12.47;100.00
16355;BME280;8287;51.644;8.494;2023-04-29T05:12:34;100213.63;;;12.48;99.78
16355;BME280;8287;51.644;8.494;2023-04-29T05:15:00;100211.75;;;12.49;99.92
16355;BME280;8287;51.644;8.494;2023-04-29T05:17:28;100212.84;;;12.48;99.84
16355;BME280;8287;51.644;8.494;2023-04-29T05:19:56;100217.53;;;12.51;100.00
16355;BME280;8287;51.644;8.494;2023-04-29T05:22:22;100220.63;;;12.53;100.00
16355;BME280;8287;51.644;8.494;2023-04-29T05:24:49;100221.56;;;12.57;99.70
16355;BME280;8287;51.644;8.494;2023-04-29T05:27:17;100223.44;;;12.56;100.00
16355;BME280;8287;51.644;8.494;2023-04-29T05:29:43;100229.41;;;12.53;100.00
16355;BME280;8287;51.644;8.494;2023-04-29T05:32:10;100234.13;;;12.48;100.00
16355;BME280;8287;51.644;8.494;2023-04-29T05:34:37;100228.81;;;12.48;100.00
16355;BME280;8287;51.644;8.494;2023-04-29T05:37:05;100227.25;;;12.47;100.00
16355;BME280;8287;51.644;8.494;2023-04-29T05:39:32;100241.13;;;12.52;100.00
16355;BME280;8287;51.644;8.494;2023-04-29T05:41:58;100237.41;;;12.45;100.00
16355;BME280;8287;51.644;8.494;2023-04-29T05:44:26;100238.47;;;12.52;99.96
16355;BME280;8287;51.644;8.494;2023-04-29T05:46:52;100241.91;;;12.53;100.00
16355;BME280;8287;51.644;8.494;2023-04-29T05:49:19;100247.84;;;12.58;99.97
16355;BME280;8287;51.644;8.494;2023-04-29T05:51:46;100247.03;;;12.58;99.71
16355;BME280;8287;51.644;8.494;2023-04-29T05:54:13;100248.47;;;12.55;100.00
16355;BME280;8287;51.644;8.494;2023-04-29T05:56:41;100251.75;;;12.52;100.00
16355;BME280;8287;51.644;8.494;2023-04-29T05:59:07;100257.25;;;12.47;100.00
16355;BME280;8287;51.644;8.494;2023-04-29T06:01:34;100259.44;;;12.54;100.00
16355;BME280;8287;51.644;8.494;2023-04-29T06:04:00;100261.75;;;12.55;100.00
16355;BME280;8287;51.644;8.494;2023-04-29T06:06:27;100268.63;;;12.56;99.92
16355;BME280;8287;51.644;8.494;2023-04-29T06:08:54;100271.91;;;12.62;100.00
16355;BME280;8287;51.644;8.494;2023-04-29T06:11:22;100270.97;;;12.58;100.00
16355;BME280;8287;51.644;8.494;2023-04-29T06:13:48;100274.72;;;12.57;100.00
16355;BME280;8287;51.644;8.494;2023-04-29T06:16:15;100286.59;;;12.59;99.52
16355;BME280;8287;51.644;8.494;2023-04-29T06:18:42;100290.03;;;12.60;99.71
16355;BME280;8287;51.644;8.494;2023-04-29T06:21:08;100300.97;;;12.67;99.41
16355;BME280;8287;51.644;8.494;2023-04-29T06:23:35;100297.66;;;12.70;99.26
16355;BME280;8287;51.644;8.494;2023-04-29T06:26:02;100295.19;;;12.65;99.43
16355;BME280;8287;51.644;8.494;2023-04-29T06:28:29;100310.50;;;12.68;99.70
16355;BME280;8287;51.644;8.494;2023-04-29T06:30:56;100298.31;;;12.67;99.14
16355;BME280;8287;51.644;8.494;2023-04-29T06:33:22;100312.53;;;12.71;99.52
16355;BME280;8287;51.644;8.494;2023-04-29T06:35:49;100315.81;;;12.68;99.21
16355;BME280;8287;51.644;8.494;2023-04-29T06:38:16;100315.81;;;12.68;99.24
16355;BME280;8287;51.644;8.494;2023-04-29T06:40:42;100323.47;;;12.69;98.90
16355;BME280;8287;51.644;8.494;2023-04-29T06:43:09;100326.59;;;12.71;99.64
16355;BME280;8287;51.644;8.494;2023-04-29T06:45:37;100330.50;;;12.74;99.69
16355;BME280;8287;51.644;8.494;2023-04-29T06:48:04;100328.47;;;12.71;99.10
16355;BME280;8287;51.644;8.494;2023-04-29T06:50:30;100335.03;;;12.73;99.11
16355;BME280;8287;51.644;8.494;2023-04-29T06:52:58;100338.47;;;12.74;99.41
16355;BME280;8287;51.644;8.494;2023-04-29T06:55:24;100340.50;;;12.77;98.95
16355;BME280;8287;51.644;8.494;2023-04-29T06:57:51;100345.25;;;12.63;99.58
16355;BME280;8287;51.644;8.494;2023-04-29T07:00:18;100348.66;;;12.72;99.32
16355;BME280;8287;51.644;8.494;2023-04-29T07:02:48;100351.78;;;12.74;98.96
16355;BME280;8287;51.644;8.494;2023-04-29T07:05:15;100351.91;;;12.77;98.84
16355;BME280;8287;51.644;8.494;2023-04-29T07:07:41;100355.63;;;12.85;98.98
16355;BME280;8287;51.644;8.494;2023-04-29T07:10:09;100366.56;;;12.92;98.34
16355;BME280;8287;51.644;8.494;2023-04-29T07:12:35;100368.47;;;12.83;97.75
16355;BME280;8287;51.644;8.494;2023-04-29T07:15:02;100369.28;;;12.83;99.70
16355;BME280;8287;51.644;8.494;2023-04-29T07:17:29;100377.22;;;12.92;98.75
16355;BME280;8287;51.644;8.494;2023-04-29T07:19:57;100383.16;;;12.97;98.61
16355;BME280;8287;51.644;8.494;2023-04-29T07:22:24;100387.09;;;12.91;98.13
16355;BME280;8287;51.644;8.494;2023-04-29T07:24:52;100392.13;;;12.67;98.32
16355;BME280;8287;51.644;8.494;2023-04-29T07:27:18;100399.19;;;12.55;99.15
16355;BME280;8287;51.644;8.494;2023-04-29T07:29:45;100404.47;;;12.72;99.73
16355;BME280;8287;51.644;8.494;2023-04-29T07:32:11;100405.44;;;12.59;99.86
16355;BME280;8287;51.644;8.494;2023-04-29T07:34:38;100408.25;;;12.54;99.38
16355;BME280;8287;51.644;8.494;2023-04-29T07:37:06;100404.47;;;12.72;99.29
16355;BME280;8287;51.644;8.494;2023-04-29T07:39:34;100411.34;;;12.73;99.99
16355;BME280;8287;51.644;8.494;2023-04-29T07:42:00;100416.34;;;12.83;98.80
16355;BME280;8287;51.644;8.494;2023-04-29T07:44:27;100420.41;;;12.89;98.87
16355;BME280;8287;51.644;8.494;2023-04-29T07:46:54;100425.25;;;12.70;99.95
16355;BME280;8287;51.644;8.494;2023-04-29T07:49:20;100422.31;;;12.80;98.37
16355;BME280;8287;51.644;8.494;2023-04-29T07:51:47;100427.13;;;12.86;98.83
16355;BME280;8287;51.644;8.494;2023-04-29T07:54:16;100431.53;;;12.99;98.59
16355;BME280;8287;51.644;8.494;2023-04-29T07:56:43;100427.72;;;13.17;98.20
16355;BME280;8287;51.644;8.494;2023-04-29T07:59:09;100438.16;;;13.30;97.46
16355;BME280;8287;51.644;8.494;2023-04-29T08:01:36;100440.28;;;13.45;96.95
16355;BME280;8287;51.644;8.494;2023-04-29T08:04:02;100442.09;;;13.53;96.90
16355;BME280;8287;51.644;8.494;2023-04-29T08:06:29;100439.44;;;13.53;96.29
16355;BME280;8287;51.644;8.494;2023-04-29T08:08:56;100443.19;;;13.52;95.87
16355;BME280;8287;51.644;8.494;2023-04-29T08:11:24;100440.75;;;13.39;95.78
16355;BME280;8287;51.644;8.494;2023-04-29T08:13:52;100457.81;;;13.46;96.10
16355;BME280;8287;51.644;8.494;2023-04-29T08:16:19;100460.63;;;13.50;95.59
16355;BME280;8287;51.644;8.494;2023-04-29T08:18:48;100460.41;;;13.55;95.51
16355;BME280;8287;51.644;8.494;2023-04-29T08:21:15;100460.41;;;13.55;95.31
16355;BME280;8287;51.644;8.494;2023-04-29T08:23:41;100474.03;;;13.53;94.88
16355;BME280;8287;51.644;8.494;2023-04-29T08:26:08;100472.84;;;13.42;94.82
16355;BME280;8287;51.644;8.494;2023-04-29T08:28:36;100475.59;;;13.09;96.14
16355;BME280;8287;51.644;8.494;2023-04-29T08:31:03;100484.53;;;13.13;96.59
16355;BME280;8287;51.644;8.494;2023-04-29T08:33:31;100482.88;;;13.45;95.20
16355;BME280;8287;51.644;8.494;2023-04-29T08:35:59;100485.59;;;13.28;94.81
16355;BME280;8287;51.644;8.494;2023-04-29T08:38:28;100489.50;;;13.23;96.48
16355;BME280;8287;51.644;8.494;2023-04-29T08:40:55;100496.13;;;13.54;95.45
16355;BME280;8287;51.644;8.494;2023-04-29T08:43:21;100491.69;;;13.66;95.58
16355;BME280;8287;51.644;8.494;2023-04-29T08:45:49;100501.38;;;13.79;93.44
16355;BME280;8287;51.644;8.494;2023-04-29T08:48:16;100497.34;;;13.65;93.23
16355;BME280;8287;51.644;8.494;2023-04-29T08:50:44;100503.22;;;13.87;93.41
16355;BME280;8287;51.644;8.494;2023-04-29T08:53:12;100502.03;;;13.68;93.53
16355;BME280;8287;51.644;8.494;2023-04-29T08:55:40;100512.19;;;13.74;93.83
16355;BME280;8287;51.644;8.494;2023-04-29T08:58:08;100499.84;;;13.61;92.37
16355;BME280;8287;51.644;8.494;2023-04-29T09:00:35;100511.06;;;13.46;92.38
16355;BME280;8287;51.644;8.494;2023-04-29T09:03:12;100507.59;;;13.83;92.22
16355;BME280;8287;51.644;8.494;2023-04-29T09:05:40;100506.22;;;13.77;92.29
16355;BME280;8287;51.644;8.494;2023-04-29T09:08:07;100503.56;;;14.06;91.76
16355;BME280;8287;51.644;8.494;2023-04-29T09:10:35;100509.31;;;13.88;90.01
16355;BME280;8287;51.644;8.494;2023-04-29T09:13:02;100511.81;;;13.47;92.87
16355;BME280;8287;51.644;8.494;2023-04-29T09:15:34;100507.09;;;13.90;91.93
16355;BME280;8287;51.644;8.494;2023-04-29T09:18:01;100517.19;;;14.13;89.94
16355;BME280;8287;51.644;8.494;2023-04-29T09:20:29;100511.50;;;14.23;89.46
16355;BME280;8287;51.644;8.494;2023-04-29T09:22:57;100518.72;;;14.14;90.12
16355;BME280;8287;51.644;8.494;2023-04-29T09:25:25;100523.91;;;14.11;88.85
16355;BME280;8287;51.644;8.494;2023-04-29T09:27:53;100519.66;;;14.18;90.53
16355;BME280;8287;51.644;8.494;2023-04-29T09:30:20;100519.19;;;14.16;90.96
16355;BME280;8287;51.644;8.494;2023-04-29T09:33:03;100527.66;;;14.47;88.30
16355;BME280;8287;51.644;8.494;2023-04-29T09:35:31;100527.97;;;14.66;88.47
16355;BME280;8287;51.644;8.494;2023-04-29T09:38:07;100534.47;;;14.77;86.29
16355;BME280;8287;51.644;8.494;2023-04-29T09:40:34;100539.16;;;14.80;85.73
16355;BME280;8287;51.644;8.494;2023-04-29T09:43:01;100541.22;;;14.75;87.06
16355;BME280;8287;51.644;8.494;2023-04-29T09:45:32;100541.91;;;14.14;87.88
16355;BME280;8287;51.644;8.494;2023-04-29T09:48:01;100549.25;;;13.88;86.59
16355;BME280;8287;51.644;8.494;2023-04-29T09:50:28;100556.13;;;13.97;89.32
16355;BME280;8287;51.644;8.494;2023-04-29T09:52:56;100550.44;;;13.61;90.10
16355;BME280;8287;51.644;8.494;2023-04-29T09:55:22;100549.53;;;13.95;88.74
16355;BME280;8287;51.644;8.494;2023-04-29T09:57:49;100549.03;;;14.39;87.76
16355;BME280;8287;51.644;8.494;2023-04-29T10:00:16;100549.03;;;14.80;87.09
16355;BME280;8287;51.644;8.494;2023-04-29T10:02:45;100555.16;;;15.01;86.35
16355;BME280;8287;51.644;8.494;2023-04-29T10:05:13;100552.81;;;14.99;82.84
16355;BME280;8287;51.644;8.494;2023-04-29T10:07:40;100558.19;;;15.11;83.48
16355;BME280;8287;51.644;8.494;2023-04-29T10:10:09;100555.03;;;14.77;82.70
16355;BME280;8287;51.644;8.494;2023-04-29T10:12:39;100568.28;;;15.06;82.73
16355;BME280;8287;51.644;8.494;2023-04-29T10:15:12;100564.84;;;15.05;83.58
16355;BME280;8287;51.644;8.494;2023-04-29T10:17:46;100566.84;;;15.08;79.69
16355;BME280;8287;51.644;8.494;2023-04-29T10:20:21;100568.84;;;15.32;79.13
16355;BME280;8287;51.644;8.494;2023-04-29T10:22:49;100574.03;;;14.96;80.37
16355;BME280;8287;51.644;8.494;2023-04-29T10:25:18;100563.56;;;14.21;82.67
16355;BME280;8287;51.644;8.494;2023-04-29T10:27:47;100570.91;;;14.53;83.57
16355;BME280;8287;51.644;8.494;2023-04-29T10:30:15;100578.50;;;14.63;83.12
16355;BME280;8287;51.644;8.494;2023-04-29T10:32:43;100568.56;;;14.92;81.58
16355;BME280;8287;51.644;8.494;2023-04-29T10:35:11;100577.56;;;15.20;80.94
16355;BME280;8287;51.644;8.494;2023-04-29T10:37:39;100578.53;;;15.36;81.28
16355;BME280;8287;51.644;8.494;2023-04-29T10:40:10;100581.38;;;14.78;80.55
16355;BME280;8287;51.644;8.494;2023-04-29T10:42:44;100573.38;;;14.99;81.70
16355;BME280;8287;51.644;8.494;2023-04-29T10:45:19;100587.03;;;15.38;78.96
16355;BME280;8287;51.644;8.494;2023-04-29T10:48:09;100582.16;;;15.52;77.27
16355;BME280;8287;51.644;8.494;2023-04-29T10:50:59;100591.19;;;14.86;79.82
16355;BME280;8287;51.644;8.494;2023-04-29T10:53:27;100588.78;;;15.34;80.94
16355;BME280;8287;51.644;8.494;2023-04-29T10:55:57;100584.94;;;15.44;79.46
16355;BME280;8287;51.644;8.494;2023-04-29T10:58:40;100589.16;;;15.45;77.36
16355;BME280;8287;51.644;8.494;2023-04-29T11:01:09;100591.13;;;15.15;75.38
16355;BME280;8287;51.644;8.494;2023-04-29T11:03:50;100600.84;;;14.99;75.10
16355;BME280;8287;51.644;8.494;2023-04-29T11:06:23;100594.38;;;15.21;77.28
16355;BME280;8287;51.644;8.494;2023-04-29T11:09:01;100591.38;;;15.22;78.46
16355;BME280;8287;51.644;8.494;2023-04-29T11:11:42;100597.25;;;15.36;76.80
16355;BME280;8287;51.644;8.494;2023-04-29T11:14:11;100593.84;;;15.27;76.32
16355;BME280;8287;51.644;8.494;2023-04-29T11:16:46;100600.09;;;15.64;78.13
16355;BME280;8287;51.644;8.494;2023-04-29T11:19:14;100594.69;;;15.72;76.75
16355;BME280;8287;51.644;8.494;2023-04-29T11:21:41;100603.69;;;15.68;73.63
16355;BME280;8287;51.644;8.494;2023-04-29T11:24:08;100606.47;;;15.18;75.34
16355;BME280;8287;51.644;8.494;2023-04-29T11:26:37;100607.78;;;15.33;76.28
16355;BME280;8287;51.644;8.494;2023-04-29T11:29:04;100608.31;;;15.59;73.92
16355;BME280;8287;51.644;8.494;2023-04-29T11:31:34;100602.91;;;15.79;71.66
16355;BME280;8287;51.644;8.494;2023-04-29T11:34:03;100612.72;;;15.75;72.23
16355;BME280;8287;51.644;8.494;2023-04-29T11:36:30;100615.00;;;15.97;72.93
16355;BME280;8287;51.644;8.494;2023-04-29T11:38:59;100619.66;;;16.00;70.42
16355;BME280;8287;51.644;8.494;2023-04-29T11:41:25;100612.16;;;15.70;72.95
16355;BME280;8287;51.644;8.494;2023-04-29T11:43:56;100617.38;;;15.66;75.34
16355;BME280;8287;51.644;8.494;2023-04-29T11:46:23;100622.97;;;15.85;72.37
16355;BME280;8287;51.644;8.494;2023-04-29T11:48:51;100627.66;;;15.88;73.93
16355;BME280;8287;51.644;8.494;2023-04-29T11:51:17;100623.69;;;16.06;73.84
16355;BME280;8287;51.644;8.494;2023-04-29T11:53:45;100625.13;;;16.04;73.31
16355;BME280;8287;51.644;8.494;2023-04-29T11:56:12;100627.56;;;15.52;72.19
16355;BME280;8287;51.644;8.494;2023-04-29T11:58:41;100630.47;;;16.04;73.70
16355;BME280;8287;51.644;8.494;2023-04-29T12:01:08;100629.25;;;16.01;73.78
16355;BME280;8287;51.644;8.494;2023-04-29T12:03:35;100642.03;;;16.08;71.96
16355;BME280;8287;51.644;8.494;2023-04-29T12:06:03;100632.72;;;15.57;72.43
16355;BME280;8287;51.644;8.494;2023-04-29T12:08:30;100626.50;;;15.65;71.94
16355;BME280;8287;51.644;8.494;2023-04-29T12:10:58;100633.16;;;16.16;71.64
16355;BME280;8287;51.644;8.494;2023-04-29T12:13:27;100635.06;;;16.15;71.51
16355;BME280;8287;51.644;8.494;2023-04-29T12:15:54;100630.97;;;15.73;70.58
16355;BME280;8287;51.644;8.494;2023-04-29T12:18:21;100630.34;;;16.12;69.52
16355;BME280;8287;51.644;8.494;2023-04-29T12:20:49;100635.81;;;16.04;71.79
16355;BME280;8287;51.644;8.494;2023-04-29T12:23:19;100625.81;;;15.56;72.74
16355;BME280;8287;51.644;8.494;2023-04-29T12:25:48;100638.50;;;15.18;73.51
16355;BME280;8287;51.644;8.494;2023-04-29T12:28:16;100633.00;;;15.23;73.96
16355;BME280;8287;51.644;8.494;2023-04-29T12:30:43;100633.84;;;15.68;73.31
16355;BME280;8287;51.644;8.494;2023-04-29T12:33:18;100637.06;;;16.06;71.62
16355;BME280;8287;51.644;8.494;2023-04-29T12:35:46;100641.06;;;16.24;71.34
16355;BME280;8287;51.644;8.494;2023-04-29T12:38:15;100639.06;;;16.33;69.83
16355;BME280;8287;51.644;8.494;2023-04-29T12:40:44;100640.88;;;16.41;70.52
16355;BME280;8287;51.644;8.494;2023-04-29T12:43:11;100643.56;;;16.41;70.37
16355;BME280;8287;51.644;8.494;2023-04-29T12:45:38;100648.03;;;16.49;70.51
16355;BME280;8287;51.644;8.494;2023-04-29T12:48:05;100643.13;;;16.39;71.13
16355;BME280;8287;51.644;8.494;2023-04-29T12:50:33;100640.88;;;16.41;71.67
16355;BME280;8287;51.644;8.494;2023-04-29T12:53:01;100647.78;;;16.42;70.64
16355;BME280;8287;51.644;8.494;2023-04-29T12:55:28;100652.59;;;16.49;71.03
16355;BME280;8287;51.644;8.494;2023-04-29T12:57:58;100657.59;;;16.62;72.16
16355;BME280;8287;51.644;8.494;2023-04-29T13:00:25;100653.56;;;16.68;71.66
16355;BME280;8287;51.644;8.494;2023-04-29T13:02:51;100652.69;;;16.76;70.20
16355;BME280;8287;51.644;8.494;2023-04-29T13:05:18;100663.50;;;16.79;67.10